Home   Weather   Germany   Mosbach   Past weeks
Flag for Germany

Past Weather in Mosbach, Baden-Württemberg, Germany — Yesterday and Last 2 Weeks

Currently: 48 °F. Sunny. (Weather station: Mannheim City, Germany). See more current weather

Past Weather in Mosbach — Graph

°F

Mosbach Temperature Yesterday

Maximum temperature yesterday: 54 °F (at 2:20 pm)
Minimum temperature yesterday: 43 °F (at 8:20 am)
Average temperature yesterday: 47 °F

High & Low Weather Summary for the Past Weeks

 TemperatureHumidityPressure
High63 °F (Feb 16, 12:50 pm)100% (Feb 15, 1:50 am)30.57 "Hg (Feb 15, 1:50 am)
Low36 °F (Feb 28, 7:20 am)47% (Feb 13, 4:20 pm)29.21 "Hg (Feb 22, 8:50 pm)
Average49 °F76%29.98 "Hg
* Reported Feb 13 2:20 pm — Feb 28 2:20 pm, Mosbach. Weather by CustomWeather, © 2024

Note: Actual official high and low records may vary slightly from our data, if they occured in-between our weather recording intervals... More about our weather records

Mosbach Weather History for the Previous 24 Hours

Scroll right to see more
 ConditionsComfort  
Time TempWeatherWind HumidityBarometerVisibility
2:20 pm
Wed, Feb 28
48 °FSunny.2 mph66%30.18 "Hg10 mi
1:50 pm48 °FSunny.3 mph62%30.18 "Hg10 mi
1:20 pm48 °FPassing clouds.1 mph66%30.21 "HgN/A
12:50 pm46 °FPassing clouds.3 mph71%30.21 "HgN/A
12:20 pm46 °FScattered clouds.2 mph71%30.21 "HgN/A
11:50 am45 °FScattered clouds.3 mph76%30.21 "HgN/A
11:20 am45 °FScattered clouds.5 mph76%30.21 "HgN/A
10:50 am43 °FPassing clouds.5 mph81%30.21 "HgN/A
10:20 am41 °FPassing clouds.7 mph81%30.21 "HgN/A
9:50 am41 °FPassing clouds.7 mph81%30.18 "HgN/A
9:20 am39 °FClear.6 mph87%30.18 "Hg6 mi
8:50 am37 °FClear.5 mph93%30.18 "Hg6 mi
8:20 am37 °FClear.5 mph87%30.18 "Hg5 mi
7:50 am36 °FClear.3 mph93%30.18 "Hg4 mi
7:20 am36 °FClear.5 mph93%30.15 "Hg5 mi
6:50 am37 °FClear.5 mph87%30.15 "Hg5 mi
6:20 am37 °FClear.6 mph87%30.12 "Hg6 mi
5:50 am37 °FClear.5 mph87%30.12 "Hg10 mi
5:20 am37 °FClear.6 mph87%30.12 "HgN/A
4:50 am37 °FClear.6 mph93%30.12 "HgN/A
4:20 am39 °FClear.6 mph87%30.09 "HgN/A
3:50 am39 °FClear.7 mph87%30.09 "HgN/A
3:20 am39 °FClear.8 mph87%30.09 "HgN/A
2:50 am39 °FClear.6 mph87%30.09 "HgN/A
2:20 am39 °FClear.6 mph87%30.09 "HgN/A
1:50 am41 °FClear.2 mph81%30.07 "HgN/A
1:20 am41 °FClear.6 mph81%30.07 "HgN/A
12:50 am43 °FClear.6 mph81%30.07 "HgN/A
12:20 am43 °FClear.6 mph81%30.07 "HgN/A
11:50 pm
Tue, Feb 27
43 °FClear.6 mph81%30.07 "HgN/A
11:20 pm43 °FClear.7 mph81%30.04 "HgN/A
10:50 pm43 °FClear.5 mph81%30.04 "HgN/A
10:20 pm45 °FClear.6 mph81%30.04 "HgN/A
9:50 pm45 °FClear.8 mph81%30.04 "HgN/A
9:20 pm45 °FClear.7 mph81%30.01 "HgN/A
8:50 pm46 °FClear.7 mph76%30.01 "Hg10 mi
8:20 pm46 °FClear.6 mph76%30.01 "Hg10 mi
7:50 pm48 °FClear.8 mph76%29.98 "Hg10 mi
7:20 pm48 °FPassing clouds.8 mph76%29.98 "HgN/A
6:50 pm50 °FPassing clouds.7 mph71%29.98 "HgN/A
6:20 pm50 °FClear.5 mph71%29.98 "Hg10 mi
5:50 pm52 °FSunny.6 mph67%29.95 "Hg10 mi
5:20 pm54 °FPassing clouds.7 mph63%29.95 "HgN/A
4:50 pm54 °FSunny.9 mph63%29.92 "Hg10 mi
4:20 pm54 °FSunny.10 mph63%29.92 "Hg10 mi
3:20 pm54 °FPartly sunny.12 mph63%29.92 "HgN/A
Weather by CustomWeather, © 2024

See weather overview